DAH6107 DAOO-DAAG
Flight info
| Callsign | DAH6107 |
|---|---|
| Flight time | 0h 41m |
| Altitude | 29000 |
| Route | SID71 CHE UG26 ZEM |
| Aircraft | B737/M-SDE2E3FGHIRWXY/LB1 |
Departure
| Time | 2026-04-28 07:27 |
|---|---|
| Airport | Oran Es-Sénia (Ahmed Ben Bella) International Airport (DAOO) |
Arrival
| Time | 2026-04-28 08:09 |
|---|---|
| Airport | Houari Boumediene Airport (DAAG) |
| Time | Latitude | Longitude | Altitude | Speed | Heading |
|---|---|---|---|---|---|
| 2026-04-28 07:04 | 35.62160 | -0.60566 | 309 ft | 0 kts | 200° |
| 2026-04-28 07:24 | 35.62157 | -0.60567 | 336 ft | 1 kts | 200° |
| 2026-04-28 07:24 | 35.62151 | -0.60587 | 309 ft | 4 kts | 299° |
| 2026-04-28 07:24 | 35.62194 | -0.60615 | 308 ft | 9 kts | 307° |
| 2026-04-28 07:24 | 35.62228 | -0.60677 | 309 ft | 9 kts | 336° |
| 2026-04-28 07:25 | 35.62283 | -0.60714 | 309 ft | 9 kts | 317° |
| 2026-04-28 07:25 | 35.62315 | -0.60779 | 309 ft | 9 kts | 298° |
| 2026-04-28 07:25 | 35.62345 | -0.60843 | 309 ft | 9 kts | 301° |
| 2026-04-28 07:25 | 35.62374 | -0.60905 | 309 ft | 8 kts | 300° |
| 2026-04-28 07:26 | 35.62401 | -0.60962 | 310 ft | 7 kts | 300° |
| 2026-04-28 07:26 | 35.62425 | -0.61011 | 311 ft | 7 kts | 304° |
| 2026-04-28 07:26 | 35.62454 | -0.61047 | 311 ft | 6 kts | 297° |
| 2026-04-28 07:26 | 35.62438 | -0.61094 | 311 ft | 9 kts | 247° |
| 2026-04-28 07:27 | 35.62338 | -0.61389 | 310 ft | 78 kts | 248° |
| 2026-04-28 07:27 | 35.62027 | -0.62298 | 312 ft | 150 kts | 246° |
| 2026-04-28 07:27 | 35.61569 | -0.63565 | 825 ft | 169 kts | 247° |
| 2026-04-28 07:27 | 35.61152 | -0.64961 | 1504 ft | 188 kts | 263° |
| 2026-04-28 07:28 | 35.61305 | -0.66648 | 2023 ft | 206 kts | 299° |
| 2026-04-28 07:28 | 35.62225 | -0.67924 | 2955 ft | 202 kts | 333° |
| 2026-04-28 07:28 | 35.63578 | -0.68308 | 3790 ft | 203 kts | 9° |
| 2026-04-28 07:28 | 35.64919 | -0.67662 | 4396 ft | 217 kts | 41° |
| 2026-04-28 07:29 | 35.65849 | -0.66155 | 4801 ft | 233 kts | 70° |
| 2026-04-28 07:29 | 35.66464 | -0.64210 | 5198 ft | 257 kts | 73° |
| 2026-04-28 07:29 | 35.67131 | -0.62106 | 5847 ft | 273 kts | 72° |
| 2026-04-28 07:29 | 35.67862 | -0.59886 | 6616 ft | 287 kts | 71° |
| 2026-04-28 07:30 | 35.68627 | -0.57599 | 7561 ft | 293 kts | 71° |
| 2026-04-28 07:30 | 35.69414 | -0.55273 | 8628 ft | 297 kts | 71° |
| 2026-04-28 07:30 | 35.70218 | -0.52909 | 9721 ft | 302 kts | 70° |
| 2026-04-28 07:30 | 35.71045 | -0.50485 | 10552 ft | 316 kts | 70° |
| 2026-04-28 07:31 | 35.71938 | -0.47864 | 10849 ft | 348 kts | 70° |
| 2026-04-28 07:31 | 35.72910 | -0.45016 | 11283 ft | 370 kts | 70° |
| 2026-04-28 07:31 | 35.73927 | -0.42054 | 12121 ft | 379 kts | 70° |
| 2026-04-28 07:31 | 35.74961 | -0.39052 | 13105 ft | 383 kts | 70° |
| 2026-04-28 07:32 | 35.76010 | -0.36007 | 14019 ft | 390 kts | 70° |
| 2026-04-28 07:32 | 35.77075 | -0.32910 | 14944 ft | 394 kts | 70° |
| 2026-04-28 07:32 | 35.78145 | -0.29799 | 15987 ft | 396 kts | 70° |
| 2026-04-28 07:32 | 35.79221 | -0.26663 | 16974 ft | 400 kts | 70° |
| 2026-04-28 07:33 | 35.80309 | -0.23489 | 17899 ft | 404 kts | 70° |
| 2026-04-28 07:33 | 35.81407 | -0.20278 | 18734 ft | 409 kts | 70° |
| 2026-04-28 07:33 | 35.82512 | -0.17035 | 19562 ft | 412 kts | 70° |
| 2026-04-28 07:33 | 35.83624 | -0.13766 | 20385 ft | 416 kts | 69° |
| 2026-04-28 07:34 | 35.84744 | -0.10468 | 21207 ft | 418 kts | 71° |
| 2026-04-28 07:34 | 35.85874 | -0.07148 | 21975 ft | 423 kts | 69° |
| 2026-04-28 07:34 | 35.87013 | -0.03795 | 22746 ft | 425 kts | 71° |
| 2026-04-28 07:34 | 35.88163 | -0.00417 | 23489 ft | 429 kts | 69° |
| 2026-04-28 07:35 | 35.89322 | 0.03000 | 24019 ft | 435 kts | 69° |
| 2026-04-28 07:35 | 35.90493 | 0.06455 | 24620 ft | 438 kts | 69° |
| 2026-04-28 07:35 | 35.91670 | 0.09932 | 25254 ft | 440 kts | 69° |
| 2026-04-28 07:35 | 35.92850 | 0.13423 | 25867 ft | 443 kts | 69° |
| 2026-04-28 07:36 | 35.94041 | 0.16948 | 26437 ft | 446 kts | 69° |
| 2026-04-28 07:36 | 35.95236 | 0.20492 | 26980 ft | 450 kts | 69° |
| 2026-04-28 07:36 | 35.96443 | 0.24073 | 27503 ft | 453 kts | 69° |
| 2026-04-28 07:36 | 35.97654 | 0.27670 | 28035 ft | 456 kts | 69° |
| 2026-04-28 07:37 | 35.98871 | 0.31286 | 28539 ft | 459 kts | 69° |
| 2026-04-28 07:37 | 36.00091 | 0.34910 | 28913 ft | 457 kts | 70° |
| 2026-04-28 07:37 | 36.02535 | 0.42202 | 28902 ft | 461 kts | 69° |
| 2026-04-28 07:38 | 36.04991 | 0.49542 | 28910 ft | 463 kts | 69° |
| 2026-04-28 07:38 | 36.07450 | 0.56914 | 28906 ft | 464 kts | 69° |
| 2026-04-28 07:39 | 36.09890 | 0.64248 | 28906 ft | 464 kts | 69° |
| 2026-04-28 07:39 | 36.12338 | 0.71620 | 28906 ft | 462 kts | 69° |
| 2026-04-28 07:40 | 36.14773 | 0.78970 | 28891 ft | 462 kts | 69° |
| 2026-04-28 07:40 | 36.17212 | 0.86355 | 28908 ft | 464 kts | 69° |
| 2026-04-28 07:41 | 36.19659 | 0.93780 | 28913 ft | 467 kts | 69° |
| 2026-04-28 07:41 | 36.22092 | 1.01184 | 28908 ft | 468 kts | 69° |
| 2026-04-28 07:42 | 36.24533 | 1.08626 | 28921 ft | 467 kts | 69° |
| 2026-04-28 07:42 | 36.26972 | 1.16071 | 28894 ft | 465 kts | 69° |
| 2026-04-28 07:43 | 36.29394 | 1.23495 | 28912 ft | 465 kts | 69° |
| 2026-04-28 07:43 | 36.31812 | 1.30932 | 28913 ft | 466 kts | 69° |
| 2026-04-28 07:44 | 36.34233 | 1.38395 | 28911 ft | 467 kts | 69° |
| 2026-04-28 07:44 | 36.36653 | 1.45872 | 28911 ft | 467 kts | 69° |
| 2026-04-28 07:45 | 36.39070 | 1.53353 | 28897 ft | 467 kts | 69° |
| 2026-04-28 07:45 | 36.41493 | 1.60868 | 28908 ft | 470 kts | 69° |
| 2026-04-28 07:46 | 36.43922 | 1.68432 | 28912 ft | 473 kts | 69° |
| 2026-04-28 07:46 | 36.46359 | 1.76041 | 28917 ft | 475 kts | 69° |
| 2026-04-28 07:47 | 36.48791 | 1.83651 | 28300 ft | 479 kts | 69° |
| 2026-04-28 07:47 | 36.50018 | 1.87493 | 27358 ft | 476 kts | 69° |
| 2026-04-28 07:47 | 36.51211 | 1.91232 | 26633 ft | 466 kts | 69° |
| 2026-04-28 07:48 | 36.52392 | 1.94944 | 25865 ft | 459 kts | 70° |
| 2026-04-28 07:48 | 36.53555 | 1.98606 | 25145 ft | 452 kts | 69° |
| 2026-04-28 07:48 | 36.54686 | 2.02172 | 24404 ft | 447 kts | 69° |
| 2026-04-28 07:48 | 36.55819 | 2.05747 | 23681 ft | 442 kts | 69° |
| 2026-04-28 07:49 | 36.56936 | 2.09277 | 22873 ft | 437 kts | 69° |
| 2026-04-28 07:49 | 36.58042 | 2.12775 | 22083 ft | 431 kts | 69° |
| 2026-04-28 07:49 | 36.59131 | 2.16222 | 21354 ft | 425 kts | 69° |
| 2026-04-28 07:49 | 36.60080 | 2.19681 | 20625 ft | 420 kts | 77° |
| 2026-04-28 07:50 | 36.60573 | 2.23231 | 19918 ft | 413 kts | 85° |
| 2026-04-28 07:50 | 36.60886 | 2.26765 | 19225 ft | 409 kts | 85° |
| 2026-04-28 07:50 | 36.61175 | 2.30275 | 18528 ft | 406 kts | 86° |
| 2026-04-28 07:50 | 36.61465 | 2.33767 | 17741 ft | 405 kts | 85° |
| 2026-04-28 07:51 | 36.61760 | 2.37234 | 16988 ft | 401 kts | 85° |
| 2026-04-28 07:51 | 36.62060 | 2.40666 | 16267 ft | 397 kts | 85° |
| 2026-04-28 07:51 | 36.62363 | 2.44065 | 15573 ft | 393 kts | 84° |
| 2026-04-28 07:51 | 36.62664 | 2.47429 | 14887 ft | 389 kts | 84° |
| 2026-04-28 07:52 | 36.62964 | 2.50765 | 14208 ft | 386 kts | 84° |
| 2026-04-28 07:52 | 36.63261 | 2.54078 | 13477 ft | 384 kts | 84° |
| 2026-04-28 07:52 | 36.63555 | 2.57364 | 12748 ft | 380 kts | 84° |
| 2026-04-28 07:52 | 36.63846 | 2.60621 | 12052 ft | 377 kts | 84° |
| 2026-04-28 07:53 | 36.64131 | 2.63836 | 11412 ft | 374 kts | 84° |
| 2026-04-28 07:53 | 36.64415 | 2.67034 | 10950 ft | 369 kts | 84° |
| 2026-04-28 07:53 | 36.64693 | 2.70191 | 10535 ft | 360 kts | 84° |
| 2026-04-28 07:53 | 36.65224 | 2.73162 | 10283 ft | 345 kts | 69° |
| 2026-04-28 07:54 | 36.66184 | 2.75814 | 10134 ft | 328 kts | 63° |
| 2026-04-28 07:54 | 36.67185 | 2.78300 | 9994 ft | 314 kts | 62° |
| 2026-04-28 07:54 | 36.68151 | 2.80662 | 9870 ft | 300 kts | 62° |
| 2026-04-28 07:54 | 36.69104 | 2.82977 | 9357 ft | 302 kts | 62° |
| 2026-04-28 07:55 | 36.70069 | 2.85303 | 8922 ft | 300 kts | 62° |
| 2026-04-28 07:55 | 36.71029 | 2.87599 | 8598 ft | 296 kts | 62° |
| 2026-04-28 07:55 | 36.71981 | 2.89867 | 8363 ft | 295 kts | 62° |
| 2026-04-28 07:55 | 36.72913 | 2.92081 | 8127 ft | 295 kts | 62° |
| 2026-04-28 07:56 | 36.73867 | 2.94347 | 7891 ft | 295 kts | 62° |
| 2026-04-28 07:56 | 36.74821 | 2.96606 | 7645 ft | 294 kts | 62° |
| 2026-04-28 07:56 | 36.75774 | 2.98860 | 7408 ft | 293 kts | 62° |
| 2026-04-28 07:56 | 36.76727 | 3.01104 | 7167 ft | 292 kts | 62° |
| 2026-04-28 07:57 | 36.77677 | 3.03331 | 6928 ft | 291 kts | 62° |
| 2026-04-28 07:57 | 36.78630 | 3.05551 | 6695 ft | 290 kts | 62° |
| 2026-04-28 07:57 | 36.79584 | 3.07757 | 6458 ft | 288 kts | 62° |
| 2026-04-28 07:57 | 36.80535 | 3.09943 | 6215 ft | 286 kts | 62° |
| 2026-04-28 07:58 | 36.81388 | 3.12168 | 5944 ft | 284 kts | 75° |
| 2026-04-28 07:58 | 36.81604 | 3.14588 | 5718 ft | 280 kts | 90° |
| 2026-04-28 07:58 | 36.81609 | 3.17010 | 5469 ft | 278 kts | 91° |
| 2026-04-28 07:58 | 36.81593 | 3.19388 | 5231 ft | 277 kts | 92° |
| 2026-04-28 07:59 | 36.81572 | 3.21823 | 4981 ft | 277 kts | 92° |
| 2026-04-28 07:59 | 36.81549 | 3.24219 | 4742 ft | 276 kts | 92° |
| 2026-04-28 07:59 | 36.81527 | 3.26605 | 4494 ft | 275 kts | 92° |
| 2026-04-28 07:59 | 36.81508 | 3.28993 | 4249 ft | 274 kts | 92° |
| 2026-04-28 08:00 | 36.81496 | 3.31369 | 4002 ft | 274 kts | 92° |
| 2026-04-28 08:00 | 36.81493 | 3.33742 | 3758 ft | 273 kts | 92° |
| 2026-04-28 08:00 | 36.81496 | 3.36103 | 3534 ft | 270 kts | 92° |
| 2026-04-28 08:00 | 36.81508 | 3.38390 | 3443 ft | 257 kts | 92° |
| 2026-04-28 08:01 | 36.81525 | 3.40563 | 3364 ft | 245 kts | 92° |
| 2026-04-28 08:01 | 36.81357 | 3.42581 | 3260 ft | 230 kts | 110° |
| 2026-04-28 08:01 | 36.80850 | 3.44425 | 3151 ft | 220 kts | 112° |
| 2026-04-28 08:01 | 36.80520 | 3.45627 | 3107 ft | 213 kts | 112° |
| 2026-04-28 08:02 | 36.79882 | 3.47915 | 3113 ft | 208 kts | 118° |
| 2026-04-28 08:02 | 36.78958 | 3.49215 | 3102 ft | 201 kts | 154° |
| 2026-04-28 08:02 | 36.77616 | 3.49583 | 3117 ft | 200 kts | 180° |
| 2026-04-28 08:02 | 36.76210 | 3.49550 | 3103 ft | 203 kts | 182° |
| 2026-04-28 08:03 | 36.74794 | 3.49503 | 3103 ft | 204 kts | 184° |
| 2026-04-28 08:03 | 36.73477 | 3.48913 | 3092 ft | 205 kts | 218° |
| 2026-04-28 08:03 | 36.72541 | 3.47574 | 3102 ft | 207 kts | 231° |
| 2026-04-28 08:03 | 36.71963 | 3.46594 | 3107 ft | 208 kts | 232° |
| 2026-04-28 08:04 | 36.71115 | 3.45131 | 3102 ft | 208 kts | 232° |
| 2026-04-28 08:04 | 36.70274 | 3.43666 | 3092 ft | 205 kts | 232° |
| 2026-04-28 08:04 | 36.69475 | 3.42266 | 3087 ft | 192 kts | 231° |
| 2026-04-28 08:04 | 36.68779 | 3.40872 | 2995 ft | 192 kts | 248° |
| 2026-04-28 08:05 | 36.68742 | 3.39244 | 2899 ft | 193 kts | 273° |
| 2026-04-28 08:05 | 36.68756 | 3.37605 | 2665 ft | 186 kts | 264° |
| 2026-04-28 08:05 | 36.68758 | 3.36012 | 2421 ft | 180 kts | 270° |
| 2026-04-28 08:05 | 36.68805 | 3.34497 | 2194 ft | 169 kts | 271° |
| 2026-04-28 08:06 | 36.68842 | 3.33064 | 1983 ft | 165 kts | 271° |
| 2026-04-28 08:06 | 36.68873 | 3.31652 | 1746 ft | 161 kts | 271° |
| 2026-04-28 08:06 | 36.68904 | 3.30276 | 1535 ft | 159 kts | 271° |
| 2026-04-28 08:06 | 36.68934 | 3.28898 | 1376 ft | 154 kts | 270° |
| 2026-04-28 08:07 | 36.68963 | 3.27617 | 1101 ft | 145 kts | 268° |
| 2026-04-28 08:07 | 36.68988 | 3.26409 | 899 ft | 140 kts | 268° |
| 2026-04-28 08:07 | 36.69017 | 3.25203 | 790 ft | 141 kts | 269° |
| 2026-04-28 08:07 | 36.69040 | 3.23962 | 604 ft | 145 kts | 270° |
| 2026-04-28 08:08 | 36.69072 | 3.22712 | 397 ft | 142 kts | 272° |
| 2026-04-28 08:08 | 36.69102 | 3.21494 | 194 ft | 139 kts | 272° |
| 2026-04-28 08:08 | 36.69129 | 3.20316 | 75 ft | 127 kts | 273° |
| 2026-04-28 08:08 | 36.69150 | 3.19458 | 71 ft | 82 kts | 272° |
| 2026-04-28 08:09 | 36.69166 | 3.18804 | 77 ft | 69 kts | 272° |
| 2026-04-28 08:09 | 36.69171 | 3.18524 | 77 ft | 19 kts | 271° |
| 2026-04-28 08:09 | 36.69200 | 3.18429 | 76 ft | 9 kts | 334° |
| 2026-04-28 08:09 | 36.69271 | 3.18429 | 72 ft | 12 kts | 4° |
| 2026-04-28 08:10 | 36.69337 | 3.18450 | 66 ft | 9 kts | 51° |
| 2026-04-28 08:10 | 36.69339 | 3.18524 | 70 ft | 9 kts | 92° |
| 2026-04-28 08:10 | 36.69337 | 3.18599 | 70 ft | 9 kts | 91° |
| 2026-04-28 08:10 | 36.69335 | 3.18691 | 70 ft | 12 kts | 92° |
| 2026-04-28 08:11 | 36.69333 | 3.18816 | 70 ft | 16 kts | 91° |
| 2026-04-28 08:11 | 36.69329 | 3.18962 | 70 ft | 17 kts | 91° |
| 2026-04-28 08:11 | 36.69326 | 3.19107 | 70 ft | 16 kts | 91° |
| 2026-04-28 08:11 | 36.69323 | 3.19246 | 67 ft | 16 kts | 91° |
| 2026-04-28 08:12 | 36.69320 | 3.19379 | 60 ft | 15 kts | 92° |
| 2026-04-28 08:12 | 36.69316 | 3.19508 | 66 ft | 14 kts | 92° |
| 2026-04-28 08:12 | 36.69313 | 3.19631 | 69 ft | 14 kts | 91° |
| 2026-04-28 08:12 | 36.69311 | 3.19748 | 69 ft | 13 kts | 92° |
| 2026-04-28 08:13 | 36.69307 | 3.19860 | 64 ft | 13 kts | 91° |
| 2026-04-28 08:13 | 36.69305 | 3.19970 | 64 ft | 12 kts | 91° |
| 2026-04-28 08:13 | 36.69303 | 3.20077 | 69 ft | 12 kts | 92° |
| 2026-04-28 08:13 | 36.69300 | 3.20181 | 70 ft | 12 kts | 91° |
| 2026-04-28 08:14 | 36.69308 | 3.20271 | 62 ft | 9 kts | 54° |
| 2026-04-28 08:14 | 36.69373 | 3.20291 | 69 ft | 11 kts | 1° |
| 2026-04-28 08:14 | 36.69440 | 3.20319 | 66 ft | 11 kts | 54° |
| 2026-04-28 08:14 | 36.69499 | 3.20366 | 69 ft | 11 kts | 5° |
| 2026-04-28 08:15 | 36.69571 | 3.20368 | 69 ft | 10 kts | 2° |
| 2026-04-28 08:15 | 36.69638 | 3.20371 | 69 ft | 9 kts | 2° |
| 2026-04-28 08:15 | 36.69698 | 3.20367 | 69 ft | 7 kts | 339° |
| 2026-04-28 08:15 | 36.69715 | 3.20313 | 69 ft | 7 kts | 270° |
| 2026-04-28 08:16 | 36.69715 | 3.20284 | 69 ft | 1 kts | 271° |
| 2026-04-28 08:16 | 36.69715 | 3.20282 | 69 ft | 0 kts | 271° |